Local Delivery Available Curbside 11am-6pm Daily Stores Temporarily Closed

Refine Your Results:

Variety

Country

Sub-Region

Specific Appelation

Price Range

Vintage

Product Type

Special Designation

Bottle Size

Wine Review Scores

Inventory Location


K&L Email Alerts

Sign up to receive custom alerts, new arrivals and the latest happenings from K&L Wines


New Product Feed

Our New Arrival Feed is a running log of new items as they come into our inventory. Many of our wines, spirits and beers come and go within hours of arrival. This live feed provides a running log of new items, sorted with the newest releases at the top as soon as they hit our database.

Page: 1 2 3 4 5 next
Date SKU Vintage Item Name List Price Quantity On Hand Allocation
2/28/2021 10:21 PM 1492542 2018 Einaudi "Vigna Tecc" Dolcetto Dogliani Superiore $24.99 4
2/28/2021 8:51 PM 1514000 2016 Luigi Pira "Serralunga" Barolo $36.99 Sold Out
2/28/2021 4:05 PM 1328207 Etienne Dupont "Jus de Pomme" Petillant (Non-Alcoholic Sparkling Apple Juice), France (330ml) $6.99 Sold Out
2/28/2021 3:20 PM 1506605 2017 Altamarea (Evening Land) "Seven Springs Vineyard" Willamette Valley Pinot Noir Hidden > 100
2/27/2021 9:17 PM 1511530 Xalar Vermut Spanish Vermouth $26.99 12
2/27/2021 7:17 PM 1051697 Perrier-Jouët "Blason" Brut Rosé Champagne $69.99 6
2/27/2021 7:17 PM 1526845 Mumm "Grand Cordon" Brut Champagne $34.99 6
2/27/2021 6:46 PM 1499581 Le Brun de Neuville "Autolyse Noirs et Blancs" Brut Champagne $59.99 Sold Out
2/27/2021 6:31 PM 1355467 2015 Joseph Phelps Napa Valley Cabernet Sauvignon (Previously $70) Hidden 3
2/27/2021 6:31 PM 1432197 2015 Joseph Phelps "Quarter Moon Vineyard" Sonoma Coast Pinot Noir $59.99 3
2/27/2021 6:31 PM 1332615 2015 Joseph Phelps "Freestone Vineyards" Sonoma Coast Pinot Noir $49.99 4
2/27/2021 6:31 PM 1400433 2015 Joseph Phelps "Pastorale Vineyard" Sonoma Coast Pinot Noir $59.99 1
2/27/2021 6:31 PM 1462420 2015 Joseph Phelps "Larry Hyde & Sons Vineyard" Napa Valley Syrah $49.99 2
2/27/2021 6:16 PM 1490243 2018 Clos du Gaimont Vouvray $19.99 1
2/27/2021 6:16 PM 1437672 2017 Evening Land "Seven Springs Vineyard" Eola-Amity Hills Pinot Noir $34.95 Sold Out
2/27/2021 6:01 PM 1032328 Ayala "Majeur" Brut Champagne $34.99 Sold Out
2/27/2021 5:31 PM 1527029 2018 Markus Prackwieser Gump Hof "Mediaevum" Weissburgunder Südtirol Alto Adige $19.99 10
2/27/2021 4:31 PM 1498836 Booker's "Pigskin Batch" 2020-3 Kentucky Straight Bourbon Whiskey (750ml) $69.99 Sold Out
2/26/2021 11:13 PM 1526631 2019 A to Z Wineworks Oregon Chardonnay $14.95 48
2/26/2021 10:58 PM 1524456 2018 Domaine Thierry et Pascale Matrot Meursault $49.99 48
2/26/2021 10:43 PM 1524460 2019 Sokol Blosser "Estate" Dundee Hills Rosé of Pinot Noir (Previously $25) Hidden > 60
2/26/2021 10:43 PM 1526628 2018 Carmel Road Monterey Pinot Noir $13.95 24
2/26/2021 10:28 PM 1518297 2019 Domaine Hudelot-Noëllat Clos Vougeot Grand Cru (Pre-Arrival) $299.99 10
2/26/2021 10:28 PM 1526644 2018 Neyers "Left Bank Red" Napa Valley Bordeaux Blend $29.95 24
2/26/2021 10:28 PM 1527023 2020 Mason Napa Valley Sauvignon Blanc $14.95 > 60
2/26/2021 10:28 PM 1525521 American Wine Story Virtual Tasting Set (4 x 750ml) (Special Order) $220.00 Sp O
2/26/2021 10:28 PM 1527028 2019 Domaine Hudelot-Noëllat Vosne-Romanée (Pre-Arrival) $99.99 12
2/26/2021 10:28 PM 1526633 2018 Cakebread Napa Valley Cabernet Sauvignon $74.95 24
2/26/2021 10:12 PM 1518296 2019 Domaine Hudelot-Noëllat Chambolle-Musigny (Pre-Arrival) $89.99 14
2/26/2021 10:12 PM 1518295 2019 Domaine Hudelot-Noëllat Bourgogne Rouge (Pre-Arrival) $39.99 63
2/26/2021 10:12 PM 1518302 2019 Domaine Hudelot-Noëllat Meursault "Clos des Ecoles" (Pre-Arrival) $79.99 60
2/26/2021 10:12 PM 1518299 2019 Domaine Hudelot-Noëllat Nuits-St-Georges 1er Cru "Les Murgers" (Pre-Arrival) $159.99 18
2/26/2021 8:27 PM 1526636 2018 Domaine Alain Chavy Bourgogne Blanc $23.99 96
2/26/2021 8:27 PM 1526637 2018 Domaine Alain Chavy Puligny-Montrachet 1er Cru "Clavoillons" $109.99 23
2/26/2021 8:12 PM 1507691 2017 Thunevin-Calvet "Cuvée Constance" Côtes du Roussillon-Villages $11.99 Sold Out
2/26/2021 8:12 PM 1474216 Kweichow Moutai Baijiu (200ml) $159.99 12
2/26/2021 8:12 PM 1475695 Tanqueray No. 10 Gin (1.75L) $49.99 9
2/26/2021 8:12 PM 1474218 Kweichow Moutai Baijiu (375ml) $299.99 12
2/26/2021 7:57 PM 1475978 2019 Tablas Creek "Patelin de Tablas" Paso Robles Rosé $19.99 5
2/26/2021 7:57 PM 1500038 2018 Siduri Santa Lucia Highlands Pinot Noir (375ml) $17.95 10
2/26/2021 7:57 PM 1303357 Hayman's London Dry Gin (750ml) Hidden 12
2/26/2021 7:42 PM 1225285 Gin Mare Mediterranean Gin (750ml) $33.99 17
2/26/2021 7:42 PM 1214723 Principe De Los Apostoles Mate Gin (750ml) $32.99 6
2/26/2021 7:42 PM 1059492 123 Tequila "Dos" 100% Organic Reposado Tequila (750ml) $49.99 11
2/26/2021 7:42 PM 1506821 Maker's Mark Cask Strength Batch 20-04 109 Proof Kentucky Bourbon Whiskey (750ml) $39.99 Sold Out
2/26/2021 7:42 PM 1500718 High West Barrel Aged Old Fashioned Cocktail (750ml) $44.99 7
2/26/2021 7:42 PM 1415094 2002 Dom Pérignon "P2" Brut Champagne $449.99 6
2/26/2021 7:42 PM 1390405 Starward "Nova" Australian Single Malt Whisky (750ml) $49.99 4
2/26/2021 7:42 PM 1397409 Hamilton 114 Proof Navy Strength Rum (750ml) $29.99 11
2/26/2021 7:42 PM 700000 Acqua Panna Water 1L Glass $2.19 36
Page: 1 2 3 4 5 next